createdAt,value
2023-03-03T00:00:29.039Z,72.10
2023-03-03T00:01:31.933Z,87.60
2023-03-03T00:02:35.091Z,89.00
2023-03-03T00:04:10.201Z,91.00
2023-03-03T00:05:13.255Z,69.90
2023-03-03T00:06:16.239Z,83.30
2023-03-03T00:07:51.185Z,73.00
2023-03-03T00:08:54.503Z,88.40
2023-03-03T00:09:57.715Z,75.00
2023-03-03T00:11:32.663Z,84.90
2023-03-03T00:12:35.715Z,72.50
2023-03-03T00:13:38.584Z,74.40
2023-03-03T00:15:13.082Z,76.00
2023-03-03T00:16:16.360Z,86.30
2023-03-03T00:17:19.344Z,74.80
2023-03-03T00:18:53.882Z,87.20
2023-03-03T00:19:56.762Z,74.60
2023-03-03T00:20:59.688Z,87.30
2023-03-03T00:22:34.733Z,71.50
2023-03-03T00:23:37.612Z,91.10
2023-03-03T00:24:40.542Z,90.20
2023-03-03T00:26:15.421Z,74.90
2023-03-03T00:27:18.360Z,84.70
2023-03-03T00:28:21.432Z,91.40
2023-03-03T00:29:56.530Z,88.70
2023-03-03T00:30:59.724Z,87.80
2023-03-03T00:32:02.799Z,74.60
2023-03-03T00:33:37.895Z,78.60
2023-03-03T00:34:40.645Z,76.50
2023-03-03T00:35:43.764Z,90.10
2023-03-03T00:37:18.522Z,89.20
2023-03-03T00:38:21.287Z,74.20
2023-03-03T00:39:24.260Z,76.70
2023-03-03T00:40:59.306Z,89.40
2023-03-03T00:42:02.351Z,88.40
2023-03-03T00:43:05.407Z,88.20
2023-03-03T00:44:40.529Z,76.10
2023-03-03T00:45:43.430Z,89.10
2023-03-03T00:46:47.040Z,89.10
2023-03-03T00:48:23.728Z,85.20
2023-03-03T00:49:26.566Z,90.30
2023-03-03T00:50:29.559Z,89.70
2023-03-03T00:52:04.303Z,88.50
2023-03-03T00:53:07.203Z,89.00
2023-03-03T00:54:10.247Z,78.00
2023-03-03T00:55:45.024Z,76.10
2023-03-03T00:56:48.150Z,84.20
2023-03-03T00:57:51.268Z,73.00
2023-03-03T00:59:26.317Z,88.10
2023-03-03T01:00:28.731Z,74.60
2023-03-03T01:01:32.364Z,87.20
2023-03-03T01:02:35.702Z,89.90
2023-03-03T01:04:10.643Z,90.30
2023-03-03T01:05:13.438Z,88.70
2023-03-03T01:06:16.489Z,86.30
2023-03-03T01:07:51.321Z,77.70
2023-03-03T01:08:54.092Z,76.30
2023-03-03T01:09:56.898Z,89.30
2023-03-03T01:11:31.549Z,87.60
2023-03-03T01:12:34.309Z,76.60
2023-03-03T01:13:38.068Z,92.00
2023-03-03T01:15:13.404Z,78.10
2023-03-03T01:16:16.577Z,91.30
2023-03-03T01:17:19.729Z,76.00
2023-03-03T01:18:54.854Z,79.00
2023-03-03T01:19:57.761Z,87.90
2023-03-03T01:21:00.843Z,90.60
2023-03-03T01:22:35.605Z,75.50
2023-03-03T01:23:38.761Z,87.80
2023-03-03T01:24:41.577Z,90.20
2023-03-03T01:26:16.275Z,70.60
2023-03-03T01:27:19.137Z,89.00
2023-03-03T01:28:22.191Z,79.40
2023-03-03T01:29:57.157Z,76.60
2023-03-03T01:31:00.329Z,90.00
2023-03-03T01:32:03.639Z,77.30
2023-03-03T01:33:38.667Z,79.00
2023-03-03T01:34:41.594Z,75.40
2023-03-03T01:35:44.690Z,88.80
2023-03-03T01:37:19.748Z,71.30
2023-03-03T01:38:22.780Z,87.00
2023-03-03T01:39:25.508Z,76.60
2023-03-03T01:41:00.525Z,87.00
2023-03-03T01:42:03.508Z,89.10
2023-03-03T01:43:06.493Z,79.40
2023-03-03T01:44:41.347Z,88.30
2023-03-03T01:45:44.252Z,90.90
2023-03-03T01:46:47.583Z,75.40
2023-03-03T01:48:22.381Z,75.00
2023-03-03T01:49:25.324Z,89.40
2023-03-03T01:50:28.524Z,89.50
2023-03-03T01:52:03.307Z,88.80
2023-03-03T01:53:06.187Z,91.30
2023-03-03T01:54:09.344Z,75.70
2023-03-03T01:55:44.318Z,76.30
2023-03-03T01:56:47.347Z,92.90
2023-03-03T01:57:50.052Z,80.00
2023-03-03T01:59:25.077Z,90.60
2023-03-03T02:00:29.091Z,87.40
2023-03-03T02:01:32.571Z,89.00
2023-03-03T02:02:36.123Z,74.50
2023-03-03T02:04:11.476Z,86.40
2023-03-03T02:05:14.638Z,77.10
2023-03-03T02:06:17.831Z,74.60
2023-03-03T02:07:52.855Z,78.20
2023-03-03T02:08:55.767Z,77.00
2023-03-03T02:09:58.983Z,75.00
2023-03-03T02:11:33.784Z,77.60
2023-03-03T02:12:36.452Z,87.20
2023-03-03T02:13:39.303Z,86.30
2023-03-03T02:15:14.049Z,72.80
2023-03-03T02:16:17.434Z,89.70
2023-03-03T02:17:20.388Z,92.00
2023-03-03T02:18:55.051Z,75.20
2023-03-03T02:19:58.006Z,75.60
2023-03-03T02:21:01.026Z,78.90
2023-03-03T02:22:35.731Z,74.70
2023-03-03T02:23:38.745Z,91.40
2023-03-03T02:24:41.881Z,73.80
2023-03-03T02:26:16.876Z,73.30
2023-03-03T02:27:19.716Z,76.90
2023-03-03T02:28:22.723Z,87.70
2023-03-03T02:29:57.602Z,90.60
2023-03-03T02:31:00.346Z,93.70
2023-03-03T02:32:03.903Z,92.00
2023-03-03T02:33:39.320Z,74.60
2023-03-03T02:34:42.138Z,89.30
2023-03-03T02:35:45.215Z,79.50
2023-03-03T02:37:20.023Z,89.40
2023-03-03T02:38:22.954Z,90.00
2023-03-03T02:39:25.859Z,74.70
2023-03-03T02:41:00.959Z,74.90
2023-03-03T02:42:04.013Z,73.60
2023-03-03T02:43:07.085Z,77.50
2023-03-03T02:44:42.100Z,90.00
2023-03-03T02:45:45.399Z,75.60
2023-03-03T02:46:48.610Z,82.30
2023-03-03T02:48:23.441Z,78.00
2023-03-03T02:49:26.188Z,79.80
2023-03-03T02:50:28.996Z,92.00
2023-03-03T02:52:03.781Z,75.40
2023-03-03T02:53:06.609Z,89.40
2023-03-03T02:54:09.441Z,90.80
2023-03-03T02:55:44.545Z,91.10
2023-03-03T02:56:47.612Z,89.00
2023-03-03T02:57:50.775Z,90.20
2023-03-03T02:59:25.481Z,92.50
2023-03-03T03:00:28.734Z,91.50
2023-03-03T03:01:32.008Z,75.50
2023-03-03T03:02:34.944Z,90.70
2023-03-03T03:04:09.781Z,91.70
2023-03-03T03:05:13.110Z,90.50
2023-03-03T03:06:15.845Z,92.60
2023-03-03T03:07:50.683Z,80.00
2023-03-03T03:08:53.484Z,79.40
2023-03-03T03:09:56.277Z,91.70
2023-03-03T03:11:31.139Z,92.50
2023-03-03T03:12:33.986Z,78.10
2023-03-03T03:13:37.063Z,86.00
2023-03-03T03:15:11.827Z,75.10
2023-03-03T03:16:15.021Z,92.00
2023-03-03T03:17:18.340Z,78.70
2023-03-03T03:18:53.451Z,89.20
2023-03-03T03:19:56.302Z,90.20
2023-03-03T03:20:59.890Z,79.20
2023-03-03T03:22:34.648Z,92.10
2023-03-03T03:23:37.691Z,87.70
2023-03-03T03:24:40.596Z,77.00
2023-03-03T03:26:15.223Z,94.80
2023-03-03T03:27:18.130Z,77.00
2023-03-03T03:28:21.070Z,77.10
2023-03-03T03:29:56.346Z,90.60
2023-03-03T03:30:59.754Z,76.00
2023-03-03T03:32:03.241Z,88.50
2023-03-03T03:33:38.318Z,78.50
2023-03-03T03:34:41.469Z,74.40
2023-03-03T03:35:44.502Z,74.90
2023-03-03T03:37:19.283Z,75.50
2023-03-03T03:38:22.038Z,78.50
2023-03-03T03:39:25.017Z,91.20
2023-03-03T03:40:59.833Z,80.60
2023-03-03T03:42:02.845Z,94.00
2023-03-03T03:43:05.911Z,90.80
2023-03-03T03:44:40.946Z,90.00
2023-03-03T03:45:43.962Z,80.50
2023-03-03T03:46:47.170Z,76.80
2023-03-03T03:48:21.904Z,90.00
2023-03-03T03:49:26.584Z,76.10
2023-03-03T03:50:29.829Z,88.70
2023-03-03T03:52:04.904Z,80.10
2023-03-03T03:53:07.975Z,80.30
2023-03-03T03:54:10.787Z,79.30
2023-03-03T03:55:45.582Z,80.60
2023-03-03T03:56:48.473Z,79.20
2023-03-03T03:57:51.285Z,78.30
2023-03-03T03:59:26.196Z,76.90
2023-03-03T04:00:29.351Z,94.00
2023-03-03T04:01:32.099Z,91.60
2023-03-03T04:02:35.823Z,89.80
2023-03-03T04:04:11.698Z,79.00
2023-03-03T04:05:14.829Z,78.50
2023-03-03T04:06:17.774Z,90.70
2023-03-03T04:07:52.963Z,78.00
2023-03-03T04:08:55.980Z,90.20
2023-03-03T04:09:58.828Z,76.40
2023-03-03T04:11:33.677Z,79.50
2023-03-03T04:12:36.537Z,78.90
2023-03-03T04:13:39.327Z,86.80
2023-03-03T04:15:14.055Z,91.50
2023-03-03T04:16:17.299Z,91.80
2023-03-03T04:17:20.140Z,77.60
2023-03-03T04:18:57.843Z,92.90
2023-03-03T04:20:00.746Z,88.20
2023-03-03T04:21:03.769Z,73.80
2023-03-03T04:22:38.894Z,76.50
2023-03-03T04:23:41.908Z,77.80
2023-03-03T04:24:44.835Z,77.20
2023-03-03T04:26:19.508Z,91.90
2023-03-03T04:27:22.416Z,92.90
2023-03-03T04:28:25.430Z,89.20
2023-03-03T04:30:00.349Z,94.30
2023-03-03T04:31:03.652Z,78.10
2023-03-03T04:32:06.916Z,80.50
2023-03-03T04:33:41.847Z,78.40
2023-03-03T04:34:44.887Z,78.40
2023-03-03T04:36:04.452Z,90.80
2023-03-03T04:37:39.380Z,78.70
2023-03-03T04:38:42.205Z,93.90
2023-03-03T04:39:45.224Z,90.70
2023-03-03T04:41:20.055Z,86.60
2023-03-03T04:42:23.216Z,81.70
2023-03-03T04:43:26.086Z,78.60
2023-03-03T04:45:00.773Z,80.20
2023-03-03T04:46:03.802Z,89.90
2023-03-03T04:47:06.951Z,89.00
2023-03-03T04:48:41.736Z,88.90
2023-03-03T04:49:44.818Z,89.20
2023-03-03T04:50:47.750Z,78.50
2023-03-03T04:52:22.399Z,89.00
2023-03-03T04:53:25.267Z,78.70
2023-03-03T04:54:28.245Z,78.70
2023-03-03T04:56:03.227Z,77.00
2023-03-03T04:57:06.196Z,78.80
2023-03-03T04:58:09.117Z,77.60
2023-03-03T04:59:43.955Z,94.20
2023-03-03T05:00:29.210Z,94.20
2023-03-03T05:01:32.331Z,79.70
2023-03-03T05:02:35.298Z,92.60
2023-03-03T05:04:09.842Z,90.50
2023-03-03T05:05:58.728Z,81.90
2023-03-03T05:07:02.472Z,88.20
2023-03-03T05:08:06.136Z,95.30
2023-03-03T05:09:42.091Z,95.90
2023-03-03T05:10:46.763Z,82.00
2023-03-03T05:11:50.353Z,97.20
2023-03-03T05:13:26.280Z,79.40
2023-03-03T05:14:29.705Z,91.80
2023-03-03T05:15:33.358Z,89.50
2023-03-03T05:17:12.064Z,78.70
2023-03-03T05:18:15.683Z,91.60
2023-03-03T05:19:19.302Z,80.60
2023-03-03T05:20:55.218Z,82.60
2023-03-03T05:21:58.619Z,77.90
2023-03-03T05:23:02.121Z,80.20
2023-03-03T05:24:37.985Z,89.50
2023-03-03T05:25:41.611Z,76.60
2023-03-03T05:26:45.330Z,89.90
2023-03-03T05:28:21.023Z,77.40
2023-03-03T05:29:24.134Z,78.70
2023-03-03T05:30:27.807Z,91.50
2023-03-03T05:32:04.048Z,81.40
2023-03-03T05:33:07.666Z,81.50
2023-03-03T05:34:10.913Z,81.50
2023-03-03T05:35:47.169Z,95.50
2023-03-03T05:36:50.662Z,92.00
2023-03-03T05:37:54.003Z,76.70
2023-03-03T05:39:29.770Z,81.50
2023-03-03T05:40:33.149Z,95.40
2023-03-03T05:41:36.321Z,92.30
2023-03-03T05:43:11.794Z,94.70
2023-03-03T05:44:15.046Z,90.40
2023-03-03T05:45:18.231Z,91.60
2023-03-03T05:46:54.536Z,88.40
2023-03-03T05:47:57.592Z,91.10
2023-03-03T05:49:00.805Z,81.00
2023-03-03T05:50:36.465Z,81.30
2023-03-03T05:51:39.801Z,82.80
2023-03-03T05:52:42.984Z,80.30
2023-03-03T05:54:18.219Z,79.30
2023-03-03T05:55:21.469Z,81.30
2023-03-03T05:56:24.707Z,93.50
2023-03-03T05:57:59.957Z,79.20
2023-03-03T05:59:03.166Z,79.00
2023-03-03T06:00:29.002Z,78.80
2023-03-03T06:01:32.447Z,80.10
2023-03-03T06:02:35.928Z,91.00
2023-03-03T06:04:11.100Z,93.50
2023-03-03T06:05:14.325Z,74.90
2023-03-03T06:06:17.497Z,91.90
2023-03-03T06:07:53.014Z,79.90
2023-03-03T06:08:57.353Z,79.20
2023-03-03T06:10:00.630Z,93.20
2023-03-03T06:11:36.022Z,89.60
2023-03-03T06:12:38.989Z,78.90
2023-03-03T06:13:42.364Z,89.80
2023-03-03T06:15:19.599Z,77.10
2023-03-03T06:16:23.305Z,92.00
2023-03-03T06:17:26.402Z,80.20
2023-03-03T06:19:01.577Z,95.30
2023-03-03T06:20:04.729Z,82.40
2023-03-03T06:21:07.674Z,79.40
2023-03-03T06:22:42.928Z,93.40
2023-03-03T06:23:46.035Z,92.90
2023-03-03T06:24:49.395Z,81.30
2023-03-03T06:26:25.052Z,93.70
2023-03-03T06:27:28.263Z,95.40
2023-03-03T06:28:31.492Z,97.00
2023-03-03T06:30:07.777Z,94.70
2023-03-03T06:31:11.176Z,96.10
2023-03-03T06:32:15.320Z,94.40
2023-03-03T06:33:50.754Z,94.50
2023-03-03T06:34:53.965Z,82.30
2023-03-03T06:35:57.434Z,77.30
2023-03-03T06:37:35.407Z,92.20
2023-03-03T06:38:38.599Z,79.70
2023-03-03T06:39:41.866Z,92.80
2023-03-03T06:41:17.477Z,79.90
2023-03-03T06:42:20.703Z,92.00
2023-03-03T06:43:24.102Z,96.10
2023-03-03T06:44:59.572Z,97.00
2023-03-03T06:46:03.015Z,95.90
2023-03-03T06:47:06.550Z,82.90
2023-03-03T06:48:42.018Z,78.40
2023-03-03T06:49:45.512Z,94.10
2023-03-03T06:50:48.727Z,80.00
2023-03-03T06:52:24.015Z,81.70
2023-03-03T06:53:27.295Z,79.70
2023-03-03T06:54:33.993Z,97.70
2023-03-03T06:56:09.382Z,91.20
2023-03-03T06:57:12.537Z,82.70
2023-03-03T06:58:15.885Z,96.30
2023-03-03T06:59:51.470Z,79.80
2023-03-03T07:00:31.189Z,75.60
2023-03-03T07:01:34.976Z,80.90
2023-03-03T07:02:38.060Z,93.20
2023-03-03T07:04:13.610Z,78.90
2023-03-03T07:05:16.909Z,92.20
2023-03-03T07:06:23.011Z,78.20
2023-03-03T07:07:58.299Z,79.90
2023-03-03T07:09:01.673Z,94.40
2023-03-03T07:10:04.858Z,76.70
2023-03-03T07:11:39.998Z,95.70
2023-03-03T07:12:44.314Z,94.50
2023-03-03T07:13:47.519Z,83.00
2023-03-03T07:15:22.887Z,95.10
2023-03-03T07:16:26.408Z,93.90
2023-03-03T07:17:29.979Z,81.90
2023-03-03T07:19:05.118Z,78.00
2023-03-03T07:20:08.608Z,95.30
2023-03-03T07:21:11.904Z,81.50
2023-03-03T07:22:47.059Z,91.20
2023-03-03T07:23:50.130Z,83.90
2023-03-03T07:24:53.595Z,80.60
2023-03-03T07:26:29.126Z,95.70
2023-03-03T07:27:32.381Z,94.40
2023-03-03T07:28:35.656Z,82.10
2023-03-03T07:30:10.610Z,93.50
2023-03-03T07:31:14.167Z,95.10
2023-03-03T07:32:17.854Z,96.90
2023-03-03T07:33:53.465Z,82.60
2023-03-03T07:34:56.671Z,78.60
2023-03-03T07:36:00.341Z,95.40
2023-03-03T07:37:36.037Z,95.10
2023-03-03T07:38:40.231Z,83.40
2023-03-03T07:39:46.303Z,82.80
2023-03-03T07:41:21.447Z,85.60
2023-03-03T07:42:24.814Z,81.40
2023-03-03T07:43:28.132Z,95.10
2023-03-03T07:45:03.447Z,96.60
2023-03-03T07:46:08.659Z,97.90
2023-03-03T07:47:11.938Z,83.90
2023-03-03T07:48:47.665Z,83.90
2023-03-03T07:49:51.063Z,81.20
2023-03-03T07:50:54.474Z,94.80
2023-03-03T07:52:30.222Z,82.10
2023-03-03T07:53:33.763Z,98.00
2023-03-03T07:54:37.425Z,96.30
2023-03-03T07:56:12.710Z,87.10
2023-03-03T07:57:15.800Z,84.10
2023-03-03T07:58:18.927Z,98.30
2023-03-03T07:59:54.057Z,83.00
2023-03-03T08:00:29.558Z,83.00
2023-03-03T08:01:33.108Z,81.20
2023-03-03T08:02:36.234Z,95.00
2023-03-03T08:04:12.480Z,85.20
2023-03-03T08:05:17.165Z,88.40
2023-03-03T08:06:20.725Z,97.60
2023-03-03T08:07:56.083Z,85.70
2023-03-03T08:08:59.408Z,98.70
2023-03-03T08:10:02.762Z,83.70
2023-03-03T08:11:41.402Z,100.90
2023-03-03T08:12:44.686Z,96.30
2023-03-03T08:13:47.962Z,87.80
2023-03-03T08:15:23.429Z,98.50
2023-03-03T08:16:27.010Z,100.70
2023-03-03T08:17:30.249Z,99.70
2023-03-03T08:19:05.547Z,96.10
2023-03-03T08:20:08.817Z,88.80
2023-03-03T08:21:12.065Z,85.30
2023-03-03T08:22:47.535Z,101.10
2023-03-03T08:23:50.918Z,84.10
2023-03-03T08:24:55.894Z,98.50
2023-03-03T08:26:31.200Z,83.90
2023-03-03T08:27:34.732Z,98.30
2023-03-03T08:28:37.914Z,86.30
2023-03-03T08:30:12.986Z,85.60
2023-03-03T08:31:52.466Z,87.00
2023-03-03T08:32:56.532Z,96.00
2023-03-03T08:34:31.935Z,87.00
2023-03-03T08:35:35.137Z,100.10
2023-03-03T08:36:40.776Z,86.90
2023-03-03T08:38:15.904Z,99.80
2023-03-03T08:39:19.334Z,101.00
2023-03-03T08:40:22.993Z,89.30
2023-03-03T08:41:58.384Z,96.70
2023-03-03T08:43:01.681Z,100.30
2023-03-03T08:44:05.129Z,101.50
2023-03-03T08:45:40.567Z,84.20
2023-03-03T08:46:44.439Z,86.80
2023-03-03T08:47:47.649Z,86.40
2023-03-03T08:49:22.917Z,86.30
2023-03-03T08:50:26.344Z,99.40
2023-03-03T08:51:29.738Z,103.00
2023-03-03T08:53:05.047Z,87.10
2023-03-03T08:54:08.341Z,90.10
2023-03-03T08:55:14.256Z,88.20
2023-03-03T08:56:49.983Z,86.70
2023-03-03T08:57:53.396Z,85.10
2023-03-03T08:59:14.158Z,90.80
2023-03-03T09:00:29.229Z,105.30
2023-03-03T09:01:33.038Z,101.60
2023-03-03T09:02:36.439Z,89.10
2023-03-03T09:04:12.141Z,103.40
2023-03-03T09:05:15.351Z,90.50
2023-03-03T09:06:18.876Z,87.30
2023-03-03T09:07:54.034Z,102.20
2023-03-03T09:08:57.163Z,90.80
2023-03-03T09:10:00.454Z,90.70
2023-03-03T09:11:35.735Z,87.90
2023-03-03T09:12:38.820Z,103.00
2023-03-03T09:13:42.280Z,100.40
2023-03-03T09:15:17.612Z,92.00
2023-03-03T09:16:21.257Z,104.70
2023-03-03T09:17:24.711Z,90.40
2023-03-03T09:19:00.136Z,104.20
2023-03-03T09:20:03.184Z,105.20
2023-03-03T09:21:06.269Z,105.60
2023-03-03T09:22:41.708Z,103.20
2023-03-03T09:23:44.843Z,106.40
2023-03-03T09:24:48.166Z,94.50
2023-03-03T09:26:23.291Z,92.30
2023-03-03T09:27:26.563Z,93.20
2023-03-03T09:28:29.981Z,95.70
2023-03-03T09:30:05.244Z,102.70
2023-03-03T09:31:08.725Z,106.90
2023-03-03T09:32:13.221Z,90.90
2023-03-03T09:33:48.875Z,107.30
2023-03-03T09:34:52.091Z,91.30
2023-03-03T09:35:55.923Z,89.50
2023-03-03T09:37:32.862Z,92.70
2023-03-03T09:38:36.176Z,104.40
2023-03-03T09:39:39.546Z,95.80
2023-03-03T09:41:14.851Z,101.90
2023-03-03T09:42:18.267Z,95.00
2023-03-03T09:43:23.429Z,91.50
2023-03-03T09:44:58.936Z,97.30
2023-03-03T09:46:02.468Z,90.80
2023-03-03T09:47:06.055Z,96.30
2023-03-03T09:48:41.603Z,105.90
2023-03-03T09:49:44.972Z,94.90
2023-03-03T09:50:48.450Z,109.40
2023-03-03T09:52:23.860Z,96.00
2023-03-03T09:53:27.073Z,96.40
2023-03-03T09:54:31.425Z,96.20
2023-03-03T09:56:06.955Z,108.30
2023-03-03T09:57:10.466Z,111.40
2023-03-03T09:58:28.124Z,97.00
2023-03-03T10:00:30.085Z,93.30
2023-03-03T10:01:33.479Z,92.60
2023-03-03T10:02:36.870Z,95.00
2023-03-03T10:04:13.518Z,91.60
2023-03-03T10:05:20.133Z,107.60
2023-03-03T10:06:23.573Z,98.10
2023-03-03T10:07:59.710Z,109.30
2023-03-03T10:09:03.286Z,96.20
2023-03-03T10:10:06.705Z,99.10
2023-03-03T10:11:42.092Z,108.70
2023-03-03T10:12:45.387Z,96.90
2023-03-03T10:13:48.738Z,111.00
2023-03-03T10:15:23.957Z,94.70
2023-03-03T10:16:27.523Z,92.80
2023-03-03T10:17:30.920Z,113.80
2023-03-03T10:19:06.637Z,98.60
2023-03-03T10:20:09.730Z,110.90
2023-03-03T10:21:13.368Z,111.70
2023-03-03T10:22:48.601Z,112.40
2023-03-03T10:23:52.235Z,114.30
2023-03-03T10:24:57.688Z,101.40
2023-03-03T10:27:09.857Z,101.70
2023-03-03T10:28:16.198Z,114.70
2023-03-03T10:29:22.429Z,113.80
2023-03-03T10:31:28.892Z,99.80
2023-03-03T10:32:34.417Z,101.00
2023-03-03T10:33:40.556Z,101.40
2023-03-03T10:35:16.637Z,101.40
2023-03-03T10:36:25.151Z,102.00
2023-03-03T10:37:28.577Z,100.60
2023-03-03T10:39:03.932Z,112.80
2023-03-03T10:40:07.140Z,116.70
2023-03-03T10:41:10.475Z,114.10
2023-03-03T10:42:45.841Z,114.80
2023-03-03T10:43:49.837Z,114.70
2023-03-03T10:44:53.157Z,102.70
2023-03-03T10:46:29.003Z,116.50
2023-03-03T10:47:32.278Z,101.80
2023-03-03T10:48:36.747Z,114.00
2023-03-03T10:50:12.594Z,104.40
2023-03-03T10:51:16.148Z,100.20
2023-03-03T10:52:19.377Z,118.30
2023-03-03T10:53:54.552Z,117.30
2023-03-03T10:54:57.993Z,116.40
2023-03-03T10:56:02.064Z,118.10
2023-03-03T10:57:55.782Z,117.00
2023-03-03T10:58:59.860Z,103.90
2023-03-03T11:00:29.289Z,106.80
2023-03-03T11:01:36.223Z,119.40
2023-03-03T11:02:39.544Z,118.00
2023-03-03T11:04:15.151Z,119.20
2023-03-03T11:05:19.034Z,106.00
2023-03-03T11:06:22.611Z,106.00
2023-03-03T11:07:59.074Z,122.70
2023-03-03T11:09:02.420Z,122.90
2023-03-03T11:10:06.610Z,122.80
2023-03-03T11:11:41.808Z,107.70
2023-03-03T11:12:45.238Z,119.90
2023-03-03T11:13:48.634Z,108.90
2023-03-03T11:15:24.207Z,122.00
2023-03-03T11:16:27.942Z,109.70
2023-03-03T11:17:31.435Z,109.50
2023-03-03T11:19:11.204Z,109.90
2023-03-03T11:20:14.934Z,108.40
2023-03-03T11:21:18.200Z,110.00
2023-03-03T11:22:54.083Z,111.60
2023-03-03T11:23:57.557Z,110.10
2023-03-03T11:25:01.314Z,123.10
2023-03-03T11:26:36.909Z,123.60
2023-03-03T11:27:40.144Z,122.50
2023-03-03T11:28:43.467Z,112.70
2023-03-03T11:30:18.887Z,107.90
2023-03-03T11:31:22.740Z,110.90
2023-03-03T11:32:30.005Z,124.40
2023-03-03T11:34:05.712Z,121.70
2023-03-03T11:35:09.216Z,124.80
2023-03-03T11:36:12.902Z,123.30
2023-03-03T11:37:48.474Z,111.00
2023-03-03T11:38:51.505Z,124.20
2023-03-03T11:39:55.018Z,123.80
2023-03-03T11:41:30.099Z,124.10
2023-03-03T11:42:35.298Z,124.00
2023-03-03T11:43:53.418Z,126.40
2023-03-03T11:45:28.814Z,126.80
2023-03-03T11:46:32.644Z,114.60
2023-03-03T11:47:38.036Z,125.80
2023-03-03T11:49:13.312Z,127.80
2023-03-03T11:50:16.770Z,115.40
2023-03-03T11:51:20.308Z,114.70
2023-03-03T11:52:55.838Z,117.90
2023-03-03T11:53:59.149Z,115.30
2023-03-03T11:55:02.278Z,129.70
2023-03-03T11:56:37.349Z,117.20
2023-03-03T11:57:40.582Z,116.10
2023-03-03T11:58:43.852Z,119.70
2023-03-03T12:00:29.360Z,129.90
2023-03-03T12:01:32.707Z,129.00
2023-03-03T12:02:36.161Z,130.90
2023-03-03T12:04:11.906Z,131.60
2023-03-03T12:05:15.084Z,119.30
2023-03-03T12:06:19.277Z,131.80
2023-03-03T12:08:11.331Z,119.30
2023-03-03T12:09:14.577Z,120.90
2023-03-03T12:10:17.979Z,134.60
2023-03-03T12:11:54.227Z,119.50
2023-03-03T12:12:57.765Z,132.00
2023-03-03T12:14:00.833Z,120.70
2023-03-03T12:15:36.427Z,131.80
2023-03-03T12:16:40.107Z,118.70
2023-03-03T12:17:43.292Z,130.30
2023-03-03T12:19:20.433Z,131.20
2023-03-03T12:20:23.829Z,128.80
2023-03-03T12:21:27.243Z,115.40
2023-03-03T12:23:18.412Z,115.80
2023-03-03T12:24:22.020Z,127.40
2023-03-03T12:25:25.392Z,126.00
2023-03-03T12:27:00.998Z,127.50
2023-03-03T12:28:04.295Z,113.10
2023-03-03T12:29:07.779Z,111.00
2023-03-03T12:30:42.832Z,128.40
2023-03-03T12:31:46.104Z,126.60
2023-03-03T12:32:49.621Z,113.50
2023-03-03T12:34:24.628Z,110.50
2023-03-03T12:35:27.880Z,125.80
2023-03-03T12:36:31.226Z,127.10
2023-03-03T12:38:06.617Z,111.40
2023-03-03T12:39:09.852Z,125.50
2023-03-03T12:40:30.376Z,111.90
2023-03-03T12:42:05.500Z,124.80
2023-03-03T12:43:09.124Z,113.50
2023-03-03T12:44:12.637Z,114.20
2023-03-03T12:45:48.213Z,114.30
2023-03-03T12:46:51.755Z,125.50
2023-03-03T12:47:54.978Z,127.60
2023-03-03T12:49:34.560Z,112.50
2023-03-03T12:50:59.363Z,125.90
2023-03-03T12:52:02.481Z,122.30
2023-03-03T12:53:37.979Z,124.10
2023-03-03T12:54:43.054Z,106.00
2023-03-03T12:55:46.492Z,105.60
2023-03-03T12:57:22.309Z,118.40
2023-03-03T12:58:25.562Z,119.20
2023-03-03T12:59:29.896Z,120.30
2023-03-03T13:00:29.590Z,101.40
2023-03-03T13:01:33.234Z,118.90
2023-03-03T13:02:36.673Z,103.70
2023-03-03T13:04:13.859Z,114.30
2023-03-03T13:05:17.243Z,103.00
2023-03-03T13:06:20.529Z,101.60
2023-03-03T13:07:56.360Z,116.00
2023-03-03T13:08:59.802Z,102.50
2023-03-03T13:10:02.976Z,103.10
2023-03-03T13:11:38.471Z,102.80
2023-03-03T13:12:41.968Z,119.40
2023-03-03T13:13:45.310Z,116.20
2023-03-03T13:15:29.642Z,104.10
2023-03-03T13:16:58.318Z,104.80
2023-03-03T13:18:02.066Z,119.50
2023-03-03T13:19:37.551Z,119.30
2023-03-03T13:20:40.996Z,101.60
2023-03-03T13:21:44.180Z,101.10
2023-03-03T13:23:19.583Z,119.30
2023-03-03T13:24:22.758Z,104.40
2023-03-03T13:25:26.314Z,104.10
2023-03-03T13:27:01.975Z,118.80
2023-03-03T13:28:05.240Z,118.00
2023-03-03T13:29:08.527Z,103.90
2023-03-03T13:30:43.871Z,100.80
2023-03-03T13:31:47.746Z,118.30
2023-03-03T13:32:54.376Z,104.40
2023-03-03T13:34:29.822Z,117.00
2023-03-03T13:35:33.513Z,119.70
2023-03-03T13:36:37.221Z,119.90
2023-03-03T13:38:12.574Z,103.80
2023-03-03T13:39:15.795Z,119.40
2023-03-03T13:40:19.362Z,104.20
2023-03-03T13:41:54.741Z,103.40
2023-03-03T13:42:58.128Z,116.70
2023-03-03T13:44:01.380Z,104.90
2023-03-03T13:45:39.962Z,106.10
2023-03-03T13:46:43.398Z,102.50
2023-03-03T13:47:46.997Z,118.00
2023-03-03T13:49:22.715Z,118.30
2023-03-03T13:50:25.982Z,104.30
2023-03-03T13:51:29.221Z,119.30
2023-03-03T13:53:04.834Z,118.60
2023-03-03T13:54:08.078Z,120.70
2023-03-03T13:55:11.370Z,120.30
2023-03-03T13:56:46.764Z,105.10
2023-03-03T13:57:49.788Z,105.80
2023-03-03T13:58:53.097Z,104.80
2023-03-03T14:00:29.343Z,106.10
2023-03-03T14:01:36.268Z,104.00
2023-03-03T14:02:39.729Z,118.20
2023-03-03T14:04:15.471Z,118.70
2023-03-03T14:05:19.105Z,119.50
2023-03-03T14:06:22.607Z,120.60
2023-03-03T14:07:58.265Z,119.60
2023-03-03T14:09:01.679Z,106.10
2023-03-03T14:10:05.003Z,107.00
2023-03-03T14:11:40.548Z,119.40
2023-03-03T14:12:43.754Z,120.70
2023-03-03T14:13:47.099Z,104.50
2023-03-03T14:15:22.328Z,106.10
2023-03-03T14:16:25.946Z,119.70
2023-03-03T14:17:29.344Z,118.50
2023-03-03T14:19:04.608Z,108.10
2023-03-03T14:20:09.468Z,105.60
2023-03-03T14:21:12.754Z,120.00
2023-03-03T14:22:48.228Z,120.00
2023-03-03T14:23:51.481Z,119.70
2023-03-03T14:24:54.960Z,118.90
2023-03-03T14:26:34.081Z,119.30
2023-03-03T14:27:37.549Z,120.00
2023-03-03T14:28:41.116Z,119.50
2023-03-03T14:30:16.478Z,106.20
2023-03-03T14:31:20.418Z,103.50
2023-03-03T14:32:30.475Z,119.30
2023-03-03T14:34:15.552Z,120.40
2023-03-03T14:35:18.740Z,106.40
2023-03-03T14:36:22.328Z,107.00
2023-03-03T14:38:00.343Z,119.40
2023-03-03T14:39:03.648Z,104.70
2023-03-03T14:40:06.893Z,120.50
2023-03-03T14:41:42.210Z,118.90
2023-03-03T14:42:45.632Z,120.00
2023-03-03T14:43:48.874Z,104.40
2023-03-03T14:45:41.417Z,119.40
2023-03-03T14:46:45.271Z,104.60
2023-03-03T14:47:48.588Z,117.50
2023-03-03T14:49:25.183Z,107.00
2023-03-03T14:50:28.445Z,117.50
2023-03-03T14:51:31.746Z,119.40
2023-03-03T14:53:07.374Z,104.90
2023-03-03T14:54:10.539Z,103.40
2023-03-03T14:55:13.866Z,104.40
2023-03-03T14:56:49.429Z,116.10
2023-03-03T14:57:52.863Z,119.60
2023-03-03T14:58:56.234Z,102.90
2023-03-03T15:00:29.053Z,120.20
2023-03-03T15:01:34.806Z,119.30
2023-03-03T15:02:38.290Z,117.50
2023-03-03T15:04:13.457Z,119.40
2023-03-03T15:05:17.211Z,118.50
2023-03-03T15:06:20.588Z,104.60
2023-03-03T15:07:55.884Z,105.20
2023-03-03T15:08:59.004Z,118.70
2023-03-03T15:10:02.570Z,104.80
2023-03-03T15:11:38.041Z,104.70
2023-03-03T15:12:41.232Z,105.90
2023-03-03T15:13:44.603Z,119.70
2023-03-03T15:15:22.939Z,118.20
2023-03-03T15:16:26.637Z,117.80
2023-03-03T15:17:29.917Z,108.40
2023-03-03T15:19:05.255Z,118.80
2023-03-03T15:20:10.144Z,105.60
2023-03-03T15:21:13.401Z,120.10
2023-03-03T15:22:48.759Z,119.80
2023-03-03T15:23:51.748Z,118.20
2023-03-03T15:24:55.127Z,116.30
2023-03-03T15:26:52.039Z,105.40
2023-03-03T15:27:55.130Z,117.50
2023-03-03T15:28:58.287Z,101.60
2023-03-03T15:30:33.763Z,117.40
2023-03-03T15:31:37.429Z,117.50
2023-03-03T15:32:43.066Z,119.10
2023-03-03T15:34:19.409Z,119.50
2023-03-03T15:35:22.875Z,104.00
2023-03-03T15:36:26.244Z,119.60
2023-03-03T15:38:01.845Z,119.00
2023-03-03T15:39:05.156Z,106.10
2023-03-03T15:40:08.440Z,118.80
2023-03-03T15:41:43.636Z,118.60
2023-03-03T15:42:46.826Z,103.90
2023-03-03T15:43:51.068Z,119.30
2023-03-03T15:45:26.355Z,104.20
2023-03-03T15:46:29.940Z,117.50